KUES

Waukesha County Airport

Waukesha, Wisconsin, USA
KUES 242250Z 2423/2518 12012KT P6SM OVC015 TEMPO 2423/2424 2SM -DZ OVC008 FM250100 13008KT P6SM BKN015 FM251000 22005KT 6SM BR BKN025 FM251500 22005KT P6SM SCT025
Issued Valid From Valid To
Sep-24 @ 22:50 UTC
(49 minutes ago)
Sep-24 @ 23:00 UTC
(39 minutes ago)
Sep-25 @ 18:00 UTC
(in 18 hours)
Sep-24 @ 23:00 to Sep-25 @ 01:00
KUES 242250Z 2423/2518 12012KT P6SM OVC015
Wind Visibility Clouds
120° at 12 knots Greater than 6 miles
  • Overcast at 1,500' AGL
Temporary Sep-24 @ 23:00 to Sep-25 @ 00:00
TEMPO 2423/2424 2SM -DZ OVC008
Visibility Clouds Conditions
2 miles
  • Overcast at 800' AGL
  • Light Drizzle
From Sep-25 @ 01:00 to Sep-25 @ 10:00
FM250100 13008KT P6SM BKN015
Wind Visibility Clouds
130° at 8 knots Greater than 6 miles
  • Broken at 1,500' AGL
From Sep-25 @ 10:00 to Sep-25 @ 15:00
FM251000 22005KT 6SM BR BKN025
Wind Visibility Clouds Conditions
220° at 5 knots 6 miles
  • Broken at 2,500' AGL
  • Mist
From Sep-25 @ 15:00 to Sep-25 @ 18:00
FM251500 22005KT P6SM SCT025
Wind Visibility Clouds
220° at 5 knots Greater than 6 miles
  • Scattered at 2,500' AGL
KUES 242250Z 2423/2518 12012KT P6SM OVC015 TEMPO 2423/2424 2SM -DZ OVC008 FM250100 13008KT P6SM BKN015 FM251000 22005KT 6SM BR BKN025 FM251500 22005KT P6SM SCT025
Issued Sep-24 @ 22:50 UTC
(49 minutes ago)
Valid From Sep-24 @ 23:00 UTC
(39 minutes ago)
Valid To Sep-25 @ 18:00 UTC
(in 18 hours)
Sep-24 @ 23:00 - Sep-25 @ 01:00
Wind Visibility
120° at 12 knots Greater than 6 miles
Clouds
  • Overcast at 1,500' AGL
Temporary Sep-24 @ 23:00 - Sep-25 @ 00:00
Clouds
  • Overcast at 800' AGL
Conditions
  • Light Drizzle
From Sep-25 @ 01:00 - Sep-25 @ 10:00
Wind Visibility
130° at 8 knots Greater than 6 miles
Clouds
  • Broken at 1,500' AGL
From Sep-25 @ 10:00 - Sep-25 @ 15:00
Wind Visibility
220° at 5 knots 6 miles
Clouds
  • Broken at 2,500' AGL
Conditions
  • Mist
From Sep-25 @ 15:00 - Sep-25 @ 18:00
Wind Visibility
220° at 5 knots Greater than 6 miles
Clouds
  • Scattered at 2,500' AGL